createdAt,value
2023-04-26T00:00:09.816Z,6.97
2023-04-26T00:02:37.949Z,6.60
2023-04-26T00:05:09.149Z,8.40
2023-04-26T00:07:38.171Z,8.80
2023-04-26T00:10:06.717Z,7.73
2023-04-26T00:12:36.311Z,6.77
2023-04-26T00:15:07.510Z,6.43
2023-04-26T00:17:35.575Z,6.87
2023-04-26T00:20:05.549Z,8.53
2023-04-26T00:22:34.917Z,7.93
2023-04-26T00:25:03.152Z,9.97
2023-04-26T00:27:31.751Z,7.80
2023-04-26T00:29:59.829Z,7.83
2023-04-26T00:32:27.896Z,7.80
2023-04-26T00:34:55.968Z,8.57
2023-04-26T00:37:24.836Z,8.10
2023-04-26T00:39:54.238Z,8.57
2023-04-26T00:42:22.245Z,5.37
2023-04-26T00:44:51.226Z,7.23
2023-04-26T00:47:19.275Z,6.60
2023-04-26T00:49:47.320Z,6.20
2023-04-26T00:52:15.428Z,7.67
2023-04-26T00:54:43.608Z,7.37
2023-04-26T00:57:13.796Z,7.40
2023-04-26T00:59:42.226Z,8.03
2023-04-26T01:02:10.418Z,8.00
2023-04-26T01:04:39.758Z,6.13
2023-04-26T01:07:07.788Z,5.73
2023-04-26T01:09:35.983Z,7.83
2023-04-26T01:12:04.451Z,7.00
2023-04-26T01:14:36.624Z,7.43
2023-04-26T01:17:06.090Z,9.03
2023-04-26T01:19:37.341Z,7.43
2023-04-26T01:22:05.584Z,7.07
2023-04-26T01:24:37.379Z,6.70
2023-04-26T01:27:05.451Z,7.57
2023-04-26T01:29:34.102Z,7.23
2023-04-26T01:32:02.178Z,7.23
2023-04-26T01:34:30.192Z,4.57
2023-04-26T01:36:58.167Z,8.47
2023-04-26T01:39:26.183Z,7.33
2023-04-26T01:41:55.590Z,9.53
2023-04-26T01:44:23.573Z,7.23
2023-04-26T01:46:51.605Z,7.23
2023-04-26T01:49:19.722Z,5.67
2023-04-26T01:51:47.707Z,7.10
2023-04-26T01:54:15.741Z,5.10
2023-04-26T01:56:46.053Z,6.30
2023-04-26T01:59:16.902Z,7.80
2023-04-26T02:01:44.910Z,7.17
2023-04-26T02:04:13.056Z,6.87
2023-04-26T02:06:41.717Z,6.73
2023-04-26T02:09:10.075Z,6.83
2023-04-26T02:11:38.125Z,6.30
2023-04-26T02:14:06.224Z,4.47
2023-04-26T02:16:35.602Z,8.80
2023-04-26T02:19:03.758Z,6.70
2023-04-26T02:21:31.771Z,7.17
2023-04-26T02:23:59.749Z,6.50
2023-04-26T02:26:28.127Z,6.97
2023-04-26T02:28:58.912Z,7.80
2023-04-26T02:31:28.193Z,9.27
2023-04-26T02:33:57.555Z,6.03
2023-04-26T02:36:25.891Z,7.63
2023-04-26T02:38:54.471Z,7.70
2023-04-26T02:41:24.771Z,9.07
2023-04-26T02:43:52.815Z,8.17
2023-04-26T02:46:21.077Z,6.80
2023-04-26T02:48:49.967Z,9.77
2023-04-26T02:51:19.490Z,9.03
2023-04-26T02:53:47.461Z,7.57
2023-04-26T02:56:16.152Z,7.20
2023-04-26T02:58:44.103Z,7.80
2023-04-26T03:01:13.786Z,6.50
2023-04-26T03:03:42.353Z,8.07
2023-04-26T03:06:10.864Z,7.97
2023-04-26T03:08:40.211Z,8.27
2023-04-26T03:11:08.196Z,8.93
2023-04-26T03:13:36.191Z,13.13
2023-04-26T03:16:04.476Z,10.03
2023-04-26T03:18:32.471Z,7.67
2023-04-26T03:21:01.243Z,10.83
2023-04-26T03:23:29.318Z,6.30
2023-04-26T03:25:58.728Z,9.07
2023-04-26T03:28:29.595Z,7.23
2023-04-26T03:31:00.115Z,8.83
2023-04-26T03:33:28.098Z,8.97
2023-04-26T03:35:56.103Z,8.43
2023-04-26T03:38:24.978Z,7.57
2023-04-26T03:40:52.977Z,6.60
2023-04-26T03:43:22.336Z,12.03
2023-04-26T03:45:51.364Z,13.53
2023-04-26T03:48:19.684Z,11.13
2023-04-26T03:50:47.960Z,9.90
2023-04-26T03:53:16.251Z,9.53
2023-04-26T03:55:44.255Z,9.33
2023-04-26T03:58:12.602Z,7.23
2023-04-26T04:00:42.302Z,10.43
2023-04-26T04:03:11.778Z,11.53
2023-04-26T04:05:40.040Z,8.57
2023-04-26T04:08:08.103Z,10.27
2023-04-26T04:10:36.849Z,11.97
2023-04-26T04:13:05.054Z,7.53
2023-04-26T04:15:33.064Z,10.87
2023-04-26T04:18:02.495Z,10.17
2023-04-26T04:20:30.574Z,12.07
2023-04-26T04:23:02.306Z,11.73
2023-04-26T04:25:30.463Z,9.83
2023-04-26T04:27:58.726Z,10.23
2023-04-26T04:30:30.645Z,10.97
2023-04-26T04:33:00.240Z,11.50
2023-04-26T04:35:34.102Z,14.73
2023-04-26T04:38:03.329Z,15.93
2023-04-26T04:40:31.512Z,13.73
2023-04-26T04:43:00.889Z,12.77
2023-04-26T04:45:29.033Z,10.43
2023-04-26T04:47:57.064Z,11.07
2023-04-26T04:50:28.169Z,13.30
2023-04-26T04:52:57.561Z,9.67
2023-04-26T04:55:25.820Z,13.60
2023-04-26T04:57:54.266Z,12.03
2023-04-26T05:00:22.896Z,10.30
2023-04-26T05:02:51.122Z,12.87
2023-04-26T05:05:19.686Z,13.97
2023-04-26T05:07:47.911Z,8.77
2023-04-26T05:10:17.493Z,9.53
2023-04-26T05:12:46.717Z,9.83
2023-04-26T05:15:15.240Z,8.07
2023-04-26T05:17:43.831Z,9.33
2023-04-26T05:20:12.458Z,9.37
2023-04-26T05:22:40.435Z,8.07
2023-04-26T05:25:10.592Z,9.77
2023-04-26T05:27:39.936Z,9.43
2023-04-26T05:30:09.670Z,4.80
2023-04-26T05:32:41.574Z,9.67
2023-04-26T05:35:10.159Z,7.70
2023-04-26T05:37:39.828Z,7.50
2023-04-26T05:40:10.103Z,7.13
2023-04-26T05:42:39.471Z,8.80
2023-04-26T05:45:08.750Z,7.67
2023-04-26T05:47:36.807Z,7.07
2023-04-26T05:50:06.119Z,9.40
2023-04-26T05:52:34.098Z,6.40
2023-04-26T05:55:04.253Z,9.07
2023-04-26T05:57:32.638Z,7.70
2023-04-26T06:00:02.048Z,5.70
2023-04-26T06:02:30.231Z,4.50
2023-04-26T06:05:01.928Z,5.17
2023-04-26T06:07:30.355Z,8.30
2023-04-26T06:09:58.642Z,6.77
2023-04-26T06:12:29.277Z,6.80
2023-04-26T06:14:57.289Z,6.20
2023-04-26T06:17:26.705Z,6.83
2023-04-26T06:19:54.875Z,4.03
2023-04-26T06:22:22.923Z,3.90
2023-04-26T06:24:51.130Z,4.13
2023-04-26T06:27:19.253Z,3.57
2023-04-26T06:29:47.621Z,6.47
2023-04-26T06:32:15.851Z,4.30
2023-04-26T06:34:45.689Z,4.70
2023-04-26T06:37:13.803Z,4.23
2023-04-26T06:39:41.922Z,5.83
2023-04-26T06:42:10.119Z,5.43
2023-04-26T06:44:38.141Z,3.00
2023-04-26T06:47:09.344Z,4.20
2023-04-26T06:49:37.349Z,5.90
2023-04-26T06:52:08.692Z,3.90
2023-04-26T06:54:45.837Z,2.77
2023-04-26T06:57:22.023Z,3.40
2023-04-26T06:59:50.087Z,5.30
2023-04-26T07:02:18.252Z,3.13
2023-04-26T07:04:47.077Z,3.10
2023-04-26T07:07:19.200Z,4.43
2023-04-26T07:09:47.238Z,4.33
2023-04-26T07:12:15.389Z,3.40
2023-04-26T07:14:43.857Z,2.90
2023-04-26T07:17:11.905Z,4.53
2023-04-26T07:19:39.909Z,3.40
2023-04-26T07:22:07.903Z,2.80
2023-04-26T07:24:37.375Z,2.47
2023-04-26T07:27:05.627Z,4.17
2023-04-26T07:29:33.639Z,3.63
2023-04-26T07:32:01.622Z,4.07
2023-04-26T07:34:29.640Z,3.43
2023-04-26T07:37:00.402Z,2.67
2023-04-26T07:39:28.668Z,6.20
2023-04-26T07:42:00.242Z,3.93
2023-04-26T07:44:28.780Z,1.67
2023-04-26T07:46:58.254Z,3.27
2023-04-26T07:49:26.270Z,4.17
2023-04-26T07:51:55.139Z,2.87
2023-04-26T07:54:23.282Z,4.70
2023-04-26T07:56:51.266Z,2.50
2023-04-26T07:59:20.611Z,3.97
2023-04-26T08:01:48.628Z,2.77
2023-04-26T08:04:18.016Z,4.60
2023-04-26T08:06:48.624Z,4.87
2023-04-26T08:09:17.099Z,3.83
2023-04-26T08:11:45.065Z,3.37
2023-04-26T08:14:13.070Z,2.93
2023-04-26T08:16:42.473Z,4.67
2023-04-26T08:19:10.875Z,3.33
2023-04-26T08:21:38.858Z,3.97
2023-04-26T08:24:08.104Z,3.77
2023-04-26T08:26:36.379Z,3.03
2023-04-26T08:29:04.460Z,3.77
2023-04-26T08:31:32.511Z,5.67
2023-04-26T08:34:02.118Z,5.17
2023-04-26T08:36:30.217Z,2.77
2023-04-26T08:38:58.345Z,3.37
2023-04-26T08:41:26.787Z,4.97
2023-04-26T08:43:58.144Z,3.13
2023-04-26T08:46:30.676Z,3.47
2023-04-26T08:49:12.799Z,5.57
2023-04-26T08:51:41.620Z,4.33
2023-04-26T08:54:12.043Z,3.27
2023-04-26T08:56:40.456Z,5.13
2023-04-26T08:59:09.958Z,2.30
2023-04-26T09:01:41.560Z,2.93
2023-04-26T09:04:11.771Z,5.50
2023-04-26T09:06:40.528Z,2.73
2023-04-26T09:09:10.576Z,3.57
2023-04-26T09:11:57.850Z,3.23
2023-04-26T09:14:26.495Z,3.40
2023-04-26T09:16:55.202Z,3.00
2023-04-26T09:19:37.457Z,4.63
2023-04-26T09:22:08.878Z,3.63
2023-04-26T09:24:49.198Z,4.60
2023-04-26T09:27:17.899Z,3.67
2023-04-26T09:29:59.682Z,4.40
2023-04-26T09:32:29.124Z,3.00
2023-04-26T09:34:58.473Z,2.27
2023-04-26T09:37:26.950Z,2.40
2023-04-26T09:39:54.933Z,4.77
2023-04-26T09:42:22.887Z,3.33
2023-04-26T09:44:51.807Z,4.07
2023-04-26T09:47:22.966Z,2.63
2023-04-26T09:49:52.645Z,4.37
2023-04-26T09:52:22.078Z,4.37
2023-04-26T09:54:51.704Z,4.17
2023-04-26T09:57:22.173Z,4.00
2023-04-26T09:59:54.325Z,3.37
2023-04-26T10:02:26.129Z,3.77
2023-04-26T10:04:59.565Z,3.70
2023-04-26T10:07:31.154Z,2.73
2023-04-26T10:10:00.057Z,3.63
2023-04-26T10:12:28.186Z,2.63
2023-04-26T10:14:57.876Z,4.17
2023-04-26T10:17:25.969Z,4.40
2023-04-26T10:19:59.796Z,1.80
2023-04-26T10:22:34.228Z,3.00
2023-04-26T10:25:02.414Z,2.10
2023-04-26T10:27:50.810Z,3.40
2023-04-26T10:30:20.839Z,2.13
2023-04-26T10:33:22.024Z,3.03
2023-04-26T10:36:07.906Z,2.93
2023-04-26T10:38:38.881Z,3.17
2023-04-26T10:41:29.777Z,3.63
2023-04-26T10:43:59.636Z,4.50
2023-04-26T10:46:39.810Z,2.63
2023-04-26T10:49:25.721Z,3.53
2023-04-26T10:52:14.884Z,3.83
2023-04-26T10:55:00.129Z,2.83
2023-04-26T10:57:54.401Z,3.50
2023-04-26T11:00:32.997Z,1.60
2023-04-26T11:03:06.949Z,2.40
2023-04-26T11:05:50.695Z,1.77
2023-04-26T11:08:20.470Z,2.97
2023-04-26T11:10:59.794Z,2.10
2023-04-26T11:13:27.767Z,1.93
2023-04-26T11:16:00.855Z,2.87
2023-04-26T11:18:29.569Z,1.80
2023-04-26T11:20:58.803Z,2.20
2023-04-26T11:23:28.775Z,0.93
2023-04-26T11:26:02.889Z,2.80
2023-04-26T11:28:33.515Z,1.77
2023-04-26T11:31:03.044Z,3.43
2023-04-26T11:33:31.388Z,2.27
2023-04-26T11:35:59.971Z,3.83
2023-04-26T11:38:29.464Z,3.03
2023-04-26T11:41:00.078Z,2.03
2023-04-26T11:43:37.996Z,3.50
2023-04-26T11:46:09.988Z,1.33
2023-04-26T11:48:42.225Z,4.73
2023-04-26T11:51:11.881Z,4.07
2023-04-26T11:53:40.884Z,2.67
2023-04-26T11:56:17.692Z,2.10
2023-04-26T11:58:47.008Z,2.57
2023-04-26T12:01:22.159Z,3.53
2023-04-26T12:03:52.232Z,2.37
2023-04-26T12:06:20.778Z,4.17
2023-04-26T12:08:54.466Z,1.30
2023-04-26T12:11:23.854Z,3.30
2023-04-26T12:13:51.831Z,2.73
2023-04-26T12:16:26.333Z,4.30
2023-04-26T12:18:56.665Z,3.20
2023-04-26T12:21:26.888Z,2.13
2023-04-26T12:23:56.250Z,1.63
2023-04-26T12:26:43.037Z,2.13
2023-04-26T12:29:11.023Z,1.93
2023-04-26T12:31:39.270Z,3.60
2023-04-26T12:34:09.699Z,2.37
2023-04-26T12:36:37.656Z,2.40
2023-04-26T12:39:06.838Z,1.70
2023-04-26T12:41:36.256Z,3.83
2023-04-26T12:44:04.223Z,3.57
2023-04-26T12:46:32.315Z,4.30
2023-04-26T12:49:00.495Z,4.10
2023-04-26T12:51:28.618Z,2.77
2023-04-26T12:53:56.585Z,2.60
2023-04-26T12:56:28.444Z,2.83
2023-04-26T12:58:57.802Z,2.80
2023-04-26T13:01:26.123Z,1.93
2023-04-26T13:03:55.620Z,1.47
2023-04-26T13:06:24.234Z,2.23
2023-04-26T13:08:52.462Z,1.97
2023-04-26T13:11:20.589Z,2.47
2023-04-26T13:13:49.603Z,2.80
2023-04-26T13:16:18.954Z,2.23
2023-04-26T13:18:47.314Z,2.73
2023-04-26T13:21:15.241Z,4.10
2023-04-26T13:23:43.318Z,3.63
2023-04-26T13:26:11.355Z,3.13
2023-04-26T13:28:39.358Z,2.53
2023-04-26T13:31:08.473Z,1.63
2023-04-26T13:33:38.093Z,1.27
2023-04-26T13:36:07.261Z,1.90
2023-04-26T13:38:35.238Z,3.10
2023-04-26T13:41:03.974Z,2.83
2023-04-26T13:43:31.942Z,2.37
2023-04-26T13:46:00.852Z,2.40
2023-04-26T13:48:29.192Z,5.17
2023-04-26T13:50:58.875Z,3.00
2023-04-26T13:53:27.655Z,2.37
2023-04-26T13:55:57.566Z,3.10
2023-04-26T13:58:25.527Z,2.83
2023-04-26T14:00:53.509Z,5.00
2023-04-26T14:03:21.681Z,2.43
2023-04-26T14:05:49.945Z,1.47
2023-04-26T14:08:19.318Z,2.77
2023-04-26T14:10:47.583Z,1.23
2023-04-26T14:13:15.852Z,1.77
2023-04-26T14:15:43.921Z,1.50
2023-04-26T14:18:12.449Z,3.30
2023-04-26T14:20:40.611Z,1.97
2023-04-26T14:23:08.581Z,2.53
2023-04-26T14:25:40.358Z,1.40
2023-04-26T14:28:08.872Z,2.03
2023-04-26T14:30:39.837Z,2.17
2023-04-26T14:33:07.830Z,2.03
2023-04-26T14:35:36.009Z,4.47
2023-04-26T14:38:04.024Z,3.73
2023-04-26T14:40:32.004Z,1.87
2023-04-26T14:43:01.373Z,2.40
2023-04-26T14:45:43.534Z,1.97
2023-04-26T14:48:12.824Z,2.70
2023-04-26T14:50:40.840Z,2.87
2023-04-26T14:53:09.725Z,3.67
2023-04-26T14:55:37.793Z,3.90
2023-04-26T14:58:08.485Z,2.13
2023-04-26T15:00:37.979Z,4.07
2023-04-26T15:03:08.804Z,3.60
2023-04-26T15:05:39.535Z,3.07
2023-04-26T15:08:07.702Z,3.43
2023-04-26T15:10:36.063Z,4.13
2023-04-26T15:13:05.885Z,3.13
2023-04-26T15:15:33.847Z,3.27
2023-04-26T15:18:01.957Z,3.53
2023-04-26T15:20:30.032Z,2.80
2023-04-26T15:22:58.026Z,4.03
2023-04-26T15:25:26.471Z,3.97
2023-04-26T15:27:54.462Z,2.20
2023-04-26T15:30:23.972Z,2.20
2023-04-26T15:32:51.967Z,4.03
2023-04-26T15:35:20.088Z,3.17
2023-04-26T15:37:48.087Z,4.63
2023-04-26T15:40:16.094Z,3.53
2023-04-26T15:42:44.319Z,2.17
2023-04-26T15:45:12.816Z,3.63
2023-04-26T15:47:42.255Z,2.27
2023-04-26T15:50:10.528Z,3.03
2023-04-26T15:52:39.637Z,3.13
2023-04-26T15:55:09.351Z,3.37
2023-04-26T15:57:37.518Z,2.37
2023-04-26T16:00:08.641Z,2.63
2023-04-26T16:02:37.022Z,3.97
2023-04-26T16:05:08.106Z,3.73
2023-04-26T16:07:41.572Z,4.13
2023-04-26T16:10:10.532Z,3.70
2023-04-26T16:12:39.820Z,2.80
2023-04-26T16:15:09.357Z,4.60
2023-04-26T16:17:37.978Z,3.93
2023-04-26T16:20:09.005Z,4.83
2023-04-26T16:22:37.471Z,6.83
2023-04-26T16:25:06.837Z,4.80
2023-04-26T16:27:35.014Z,4.07
2023-04-26T16:30:03.840Z,4.83
2023-04-26T16:32:32.245Z,5.90
2023-04-26T16:35:00.811Z,4.10
2023-04-26T16:37:30.174Z,5.60
2023-04-26T16:39:58.299Z,4.50
2023-04-26T16:42:26.413Z,5.67
2023-04-26T16:44:56.352Z,7.00
2023-04-26T16:47:24.360Z,3.70
2023-04-26T16:49:52.805Z,7.10
2023-04-26T16:52:20.862Z,4.17
2023-04-26T16:54:50.247Z,5.63
2023-04-26T16:57:18.382Z,2.83
2023-04-26T16:59:47.128Z,2.90
2023-04-26T17:02:15.497Z,3.30
2023-04-26T17:04:43.985Z,3.33
2023-04-26T17:07:12.783Z,2.93
2023-04-26T17:09:42.405Z,3.23
2023-04-26T17:12:12.124Z,1.97
2023-04-26T17:14:42.295Z,1.70
2023-04-26T17:17:10.291Z,3.13
2023-04-26T17:19:38.514Z,2.23
2023-04-26T17:22:07.266Z,4.47
2023-04-26T17:24:35.263Z,5.57
2023-04-26T17:27:04.462Z,5.23
2023-04-26T17:29:33.820Z,5.67
2023-04-26T17:32:01.982Z,7.07
2023-04-26T17:34:30.278Z,4.40
2023-04-26T17:36:58.290Z,4.37
2023-04-26T17:39:26.497Z,2.13
2023-04-26T17:41:54.735Z,6.07
2023-04-26T17:44:22.989Z,5.30
2023-04-26T17:46:52.344Z,3.20
2023-04-26T17:49:25.617Z,7.67
2023-04-26T17:51:53.706Z,5.03
2023-04-26T17:54:22.113Z,3.97
2023-04-26T17:56:50.233Z,3.30
2023-04-26T17:59:18.214Z,6.07
2023-04-26T18:01:48.638Z,3.90
2023-04-26T18:04:18.276Z,4.70
2023-04-26T18:06:47.371Z,4.47
2023-04-26T18:09:15.450Z,5.53
2023-04-26T18:11:47.607Z,6.57
2023-04-26T18:14:16.195Z,4.77
2023-04-26T18:16:44.600Z,3.93
2023-04-26T18:19:12.801Z,5.07
2023-04-26T18:21:42.179Z,6.23
2023-04-26T18:24:10.250Z,4.20
2023-04-26T18:26:39.244Z,4.07
2023-04-26T18:29:09.047Z,5.57
2023-04-26T18:31:37.276Z,4.63
2023-04-26T18:34:05.758Z,5.03
2023-04-26T18:36:33.848Z,6.03
2023-04-26T18:39:03.211Z,7.07
2023-04-26T18:41:31.320Z,5.07
2023-04-26T18:43:59.398Z,6.43
2023-04-26T18:46:27.657Z,5.83
2023-04-26T18:48:55.755Z,8.00
2023-04-26T18:51:23.741Z,7.90
2023-04-26T18:53:51.724Z,7.37
2023-04-26T18:56:21.365Z,5.70
2023-04-26T18:58:50.419Z,6.27
2023-04-26T19:01:18.509Z,9.03
2023-04-26T19:03:46.777Z,6.53
2023-04-26T19:06:16.571Z,8.00
2023-04-26T19:08:45.483Z,4.93
2023-04-26T19:11:13.847Z,7.23
2023-04-26T19:13:43.384Z,9.00
2023-04-26T19:16:11.918Z,12.27
2023-04-26T19:18:41.061Z,12.43
2023-04-26T19:21:13.020Z,10.53
2023-04-26T19:23:41.309Z,13.13
2023-04-26T19:26:12.173Z,12.63
2023-04-26T19:28:40.315Z,10.63
2023-04-26T19:31:09.728Z,9.97
2023-04-26T19:33:44.862Z,9.43
2023-04-26T19:36:12.963Z,10.70
2023-04-26T19:38:43.750Z,9.07
2023-04-26T19:41:14.039Z,8.80
2023-04-26T19:43:44.714Z,9.83
2023-04-26T19:46:15.336Z,9.40
2023-04-26T19:48:43.513Z,11.03
2023-04-26T19:51:17.475Z,9.90
2023-04-26T19:53:45.799Z,9.40
2023-04-26T19:56:13.853Z,9.37
2023-04-26T19:58:44.873Z,10.40
2023-04-26T20:01:16.297Z,10.23
2023-04-26T20:03:46.847Z,9.83
2023-04-26T20:06:15.318Z,10.87
2023-04-26T20:08:43.502Z,10.63
2023-04-26T20:11:15.203Z,11.57
2023-04-26T20:13:43.604Z,10.60
2023-04-26T20:16:14.706Z,13.13
2023-04-26T20:18:44.422Z,12.30
2023-04-26T20:21:12.734Z,11.20
2023-04-26T20:23:43.155Z,13.27
2023-04-26T20:26:11.470Z,14.47
2023-04-26T20:28:40.169Z,11.87
2023-04-26T20:31:09.436Z,14.63
2023-04-26T20:33:37.481Z,15.13
2023-04-26T20:36:07.302Z,15.37
2023-04-26T20:38:35.349Z,14.93
2023-04-26T20:41:04.941Z,13.00
2023-04-26T20:43:32.997Z,16.03
2023-04-26T20:46:01.079Z,16.60
2023-04-26T20:48:29.455Z,13.17
2023-04-26T20:50:58.731Z,16.30
2023-04-26T20:53:28.144Z,14.07
2023-04-26T20:55:56.809Z,15.53
2023-04-26T20:58:26.855Z,14.17
2023-04-26T21:00:55.599Z,14.77
2023-04-26T21:03:23.973Z,14.00
2023-04-26T21:05:52.176Z,12.87
2023-04-26T21:08:20.194Z,12.93
2023-04-26T21:10:49.877Z,10.63
2023-04-26T21:13:18.003Z,13.77
2023-04-26T21:15:48.636Z,11.47
2023-04-26T21:18:16.747Z,12.07
2023-04-26T21:20:44.872Z,12.00
2023-04-26T21:23:13.023Z,11.63
2023-04-26T21:25:46.506Z,10.67
2023-04-26T21:28:16.078Z,11.57
2023-04-26T21:30:45.490Z,12.73
2023-04-26T21:33:15.929Z,12.43
2023-04-26T21:35:44.178Z,12.40
2023-04-26T21:38:12.242Z,11.57
2023-04-26T21:40:40.374Z,13.00
2023-04-26T21:43:08.464Z,13.47
2023-04-26T21:45:37.942Z,12.27
2023-04-26T21:48:06.706Z,16.87
2023-04-26T21:50:34.829Z,14.87
2023-04-26T21:53:03.066Z,15.43
2023-04-26T21:55:31.213Z,15.00
2023-04-26T21:58:01.802Z,16.13
2023-04-26T22:00:30.052Z,15.90
2023-04-26T22:02:59.744Z,16.97
2023-04-26T22:05:28.046Z,14.13
2023-04-26T22:07:56.280Z,13.60
2023-04-26T22:10:24.468Z,17.50
2023-04-26T22:12:52.957Z,16.10
2023-04-26T22:15:21.198Z,16.43
2023-04-26T22:17:49.322Z,18.63
2023-04-26T22:20:19.030Z,16.20
2023-04-26T22:22:48.560Z,15.63
2023-04-26T22:25:16.743Z,15.67
2023-04-26T22:27:45.115Z,16.47
2023-04-26T22:30:24.721Z,17.83
2023-04-26T22:32:54.686Z,18.20
2023-04-26T22:35:24.791Z,17.80
2023-04-26T22:37:54.267Z,16.07
2023-04-26T22:40:22.403Z,14.37
2023-04-26T22:42:51.142Z,18.37
2023-04-26T22:45:19.421Z,16.90
2023-04-26T22:47:47.597Z,17.70
2023-04-26T22:50:15.820Z,15.67
2023-04-26T22:52:47.972Z,18.40
2023-04-26T22:55:16.102Z,15.23
2023-04-26T22:57:44.204Z,17.90
2023-04-26T23:00:14.609Z,13.90
2023-04-26T23:02:43.035Z,17.37
2023-04-26T23:05:11.982Z,15.63
2023-04-26T23:07:40.895Z,16.53
2023-04-26T23:10:11.179Z,19.43
2023-04-26T23:12:40.665Z,17.67
2023-04-26T23:15:09.859Z,15.93
2023-04-26T23:17:38.880Z,18.53
2023-04-26T23:20:12.793Z,13.67
2023-04-26T23:22:41.477Z,15.90
2023-04-26T23:25:12.846Z,17.80
2023-04-26T23:27:41.017Z,16.00
2023-04-26T23:30:09.965Z,16.30
2023-04-26T23:32:38.291Z,16.23
2023-04-26T23:35:07.678Z,16.63
2023-04-26T23:37:35.854Z,17.37
2023-04-26T23:40:08.722Z,17.20
2023-04-26T23:42:38.406Z,16.37
2023-04-26T23:45:10.723Z,20.03
2023-04-26T23:47:38.914Z,17.50
2023-04-26T23:50:08.136Z,17.77
2023-04-26T23:52:36.249Z,19.67
2023-04-26T23:55:04.465Z,17.70
2023-04-26T23:57:32.669Z,19.43
